createdAt,value
2023-03-23T00:00:51.031Z,27.52
2023-03-23T00:10:51.135Z,34.71
2023-03-23T00:11:51.170Z,29.14
2023-03-23T00:12:51.168Z,29.61
2023-03-23T00:13:51.296Z,31.53
2023-03-23T00:14:51.259Z,31.28
2023-03-23T00:15:51.309Z,27.94
2023-03-23T00:16:51.338Z,31.81
2023-03-23T00:17:51.401Z,29.66
2023-03-23T00:18:51.459Z,30.36
2023-03-23T00:19:51.491Z,28.42
2023-03-23T00:20:51.509Z,28.90
2023-03-23T00:21:51.586Z,28.48
2023-03-23T00:22:51.591Z,28.34
2023-03-23T00:26:51.659Z,25.04
2023-03-23T00:27:51.661Z,25.91
2023-03-23T00:28:51.667Z,27.02
2023-03-23T00:29:51.668Z,26.68
2023-03-23T00:30:51.695Z,28.18
2023-03-23T00:31:51.697Z,25.00
2023-03-23T00:32:51.715Z,25.83
2023-03-23T00:33:51.727Z,27.92
2023-03-23T00:34:51.741Z,28.43
2023-03-23T00:35:51.823Z,26.61
2023-03-23T00:36:51.799Z,28.44
2023-03-23T00:37:51.806Z,29.41
2023-03-23T00:38:51.834Z,32.24
2023-03-23T00:39:51.878Z,30.05
2023-03-23T00:40:51.918Z,30.54
2023-03-23T00:41:51.985Z,26.52
2023-03-23T00:42:52.002Z,28.20
2023-03-23T00:43:52.066Z,30.49
2023-03-23T00:44:53.656Z,32.32
2023-03-23T00:45:52.133Z,33.10
2023-03-23T00:46:52.158Z,31.39
2023-03-23T00:48:52.297Z,29.94
2023-03-23T00:49:52.297Z,31.84
2023-03-23T00:50:52.328Z,33.37
2023-03-23T00:51:52.364Z,30.09
2023-03-23T00:52:52.462Z,28.48
2023-03-23T00:53:52.491Z,29.81
2023-03-23T00:54:52.507Z,28.02
2023-03-23T00:55:52.555Z,28.47
2023-03-23T00:56:52.619Z,26.32
2023-03-23T00:57:52.648Z,27.51
2023-03-23T00:58:52.712Z,29.22
2023-03-23T00:59:52.738Z,29.73
2023-03-23T01:00:52.799Z,29.71
2023-03-23T01:01:52.851Z,28.78
2023-03-23T01:02:52.900Z,25.91
2023-03-23T01:03:52.939Z,28.04
2023-03-23T01:04:52.981Z,28.96
2023-03-23T01:05:53.033Z,29.11
2023-03-23T01:06:53.039Z,31.20
2023-03-23T01:07:53.092Z,31.88
2023-03-23T01:08:53.198Z,29.61
2023-03-23T01:09:53.265Z,29.83
2023-03-23T01:20:53.369Z,27.08
2023-03-23T01:21:53.369Z,25.54
2023-03-23T01:22:53.372Z,29.05
2023-03-23T01:23:53.368Z,26.40
2023-03-23T01:24:53.390Z,28.49
2023-03-23T01:25:53.411Z,27.50
2023-03-23T01:26:53.440Z,29.16
2023-03-23T01:27:53.455Z,28.45
2023-03-23T01:34:53.650Z,28.45
2023-03-23T01:35:53.746Z,28.69
2023-03-23T01:36:53.753Z,30.43
2023-03-23T01:37:53.788Z,31.13
2023-03-23T01:38:53.852Z,29.18
2023-03-23T01:39:53.916Z,28.43
2023-03-23T01:40:53.901Z,28.18
2023-03-23T01:41:53.949Z,28.10
2023-03-23T01:42:53.959Z,27.84
2023-03-23T01:43:53.993Z,25.08
2023-03-23T01:44:53.994Z,28.27
2023-03-23T01:45:54.017Z,25.00
2023-03-23T01:46:54.056Z,28.30
2023-03-23T01:47:54.060Z,29.35
2023-03-23T01:48:54.100Z,33.70
2023-03-23T01:49:54.117Z,33.68
2023-03-23T01:54:54.212Z,31.92
2023-03-23T01:55:54.219Z,31.03
2023-03-23T01:56:54.239Z,28.84
2023-03-23T01:57:54.270Z,28.57
2023-03-23T01:58:54.287Z,28.03
2023-03-23T02:00:54.314Z,28.62
2023-03-23T02:01:54.323Z,26.12
2023-03-23T02:02:54.338Z,28.87
2023-03-23T02:03:54.364Z,27.63
2023-03-23T02:04:54.401Z,31.59
2023-03-23T02:05:54.412Z,27.41
2023-03-23T02:06:54.435Z,27.87
2023-03-23T02:07:54.464Z,31.77
2023-03-23T02:08:54.464Z,32.20
2023-03-23T02:09:54.511Z,29.67
2023-03-23T02:10:54.519Z,32.74
2023-03-23T02:11:54.542Z,32.93
2023-03-23T02:12:54.604Z,30.89
2023-03-23T02:13:54.654Z,30.09
2023-03-23T02:14:54.699Z,28.86
2023-03-23T02:15:54.749Z,30.36
2023-03-23T02:16:54.781Z,29.26
2023-03-23T02:17:54.842Z,25.70
2023-03-23T02:18:54.887Z,30.37
2023-03-23T02:19:54.904Z,28.08
2023-03-23T02:20:54.979Z,28.45
2023-03-23T02:21:55.015Z,29.37
2023-03-23T02:22:55.052Z,29.55
2023-03-23T02:23:55.111Z,29.26
2023-03-23T02:24:55.169Z,29.18
2023-03-23T02:25:55.216Z,29.34
2023-03-23T02:26:55.284Z,26.93
2023-03-23T02:27:55.343Z,31.39
2023-03-23T02:28:55.376Z,26.81
2023-03-23T02:29:55.412Z,29.05
2023-03-23T02:30:55.399Z,29.04
2023-03-23T02:41:55.750Z,28.38
2023-03-23T02:42:55.758Z,26.62
2023-03-23T02:43:55.758Z,30.70
2023-03-23T02:44:55.788Z,27.56
2023-03-23T02:45:55.830Z,27.74
2023-03-23T02:46:55.867Z,29.92
2023-03-23T02:49:55.925Z,30.40
2023-03-23T02:50:55.959Z,28.92
2023-03-23T02:51:55.978Z,32.20
2023-03-23T02:52:56.005Z,32.45
2023-03-23T02:53:56.022Z,32.04
2023-03-23T02:54:56.041Z,33.14
2023-03-23T02:55:56.083Z,34.61
2023-03-23T02:56:56.153Z,31.93
2023-03-23T02:57:56.154Z,28.44
2023-03-23T03:03:56.280Z,32.16
2023-03-23T03:04:56.291Z,28.46
2023-03-23T03:05:56.328Z,31.26
2023-03-23T03:06:56.349Z,28.47
2023-03-23T03:07:56.372Z,31.72
2023-03-23T03:08:56.417Z,28.53
2023-03-23T03:09:56.457Z,31.61
2023-03-23T03:10:56.456Z,28.48
2023-03-23T03:11:56.469Z,26.95
2023-03-23T03:12:56.481Z,27.25
2023-03-23T03:13:56.560Z,29.46
2023-03-23T03:14:56.584Z,26.90
2023-03-23T03:15:56.626Z,27.74
2023-03-23T03:16:56.713Z,29.07
2023-03-23T03:17:56.747Z,25.98
2023-03-23T03:18:56.791Z,31.15
2023-03-23T03:19:56.844Z,32.36
2023-03-23T03:20:56.892Z,29.93
2023-03-23T03:21:56.940Z,28.81
2023-03-23T03:22:57.009Z,27.25
2023-03-23T03:23:57.084Z,28.01
2023-03-23T03:24:57.109Z,29.55
2023-03-23T03:25:57.158Z,31.97
2023-03-23T03:26:57.190Z,30.36
2023-03-23T03:27:57.256Z,30.39
2023-03-23T03:28:57.294Z,33.55
2023-03-23T03:29:57.346Z,33.21
2023-03-23T03:30:57.434Z,35.20
2023-03-23T03:31:57.458Z,33.43
2023-03-23T03:32:57.480Z,32.06
2023-03-23T03:33:57.509Z,33.61
2023-03-23T03:34:57.524Z,34.98
2023-03-23T03:39:57.658Z,34.11
2023-03-23T03:40:57.784Z,33.54
2023-03-23T03:41:57.705Z,30.68
2023-03-23T03:42:57.856Z,32.55
2023-03-23T03:53:58.123Z,26.98
2023-03-23T03:54:58.190Z,31.34
2023-03-23T03:55:58.202Z,28.65
2023-03-23T03:56:58.256Z,32.70
2023-03-23T03:57:58.290Z,30.35
2023-03-23T03:58:58.302Z,33.93
2023-03-23T03:59:59.299Z,34.15
2023-03-23T04:04:58.249Z,37.19
2023-03-23T04:06:58.229Z,30.95
2023-03-23T04:07:58.227Z,32.18
2023-03-23T04:09:08.316Z,32.53
2023-03-23T04:09:59.264Z,32.70
2023-03-23T04:14:58.154Z,36.48
2023-03-23T04:16:10.074Z,37.00
2023-03-23T04:16:59.172Z,37.15
2023-03-23T04:17:58.179Z,38.76
2023-03-23T04:18:58.173Z,39.42
2023-03-23T04:23:58.129Z,43.98
2023-03-23T04:24:58.118Z,42.62
2023-03-23T04:27:59.199Z,41.74
2023-03-23T04:30:58.076Z,42.42
2023-03-23T04:31:58.067Z,42.47
2023-03-23T04:36:58.000Z,43.29
2023-03-23T04:37:58.012Z,46.15
2023-03-23T04:38:58.023Z,45.04
2023-03-23T04:39:58.008Z,42.76
2023-03-23T04:40:58.006Z,45.18
2023-03-23T04:41:58.004Z,42.40
2023-03-23T04:48:57.930Z,40.28
2023-03-23T04:54:57.909Z,42.09
2023-03-23T04:55:57.909Z,42.34
2023-03-23T05:04:59.402Z,41.51
2023-03-23T05:05:57.845Z,45.82
2023-03-23T05:10:57.791Z,43.52
2023-03-23T05:11:57.833Z,43.35
2023-03-23T05:13:57.761Z,41.18
2023-03-23T05:14:57.781Z,40.86
2023-03-23T05:16:57.749Z,39.58
2023-03-23T05:17:57.760Z,40.93
2023-03-23T05:22:57.732Z,41.18
2023-03-23T05:27:57.739Z,40.83
2023-03-23T05:30:57.734Z,38.98
2023-03-23T05:32:57.711Z,40.30
2023-03-23T05:37:57.689Z,39.66
2023-03-23T05:38:57.686Z,39.82
2023-03-23T05:43:57.670Z,40.86
2023-03-23T05:53:57.600Z,39.02
2023-03-23T05:54:57.636Z,39.68
2023-03-23T06:02:57.504Z,37.04
2023-03-23T06:03:59.260Z,35.97
2023-03-23T06:04:57.507Z,36.45
2023-03-23T06:05:57.492Z,36.88
2023-03-23T06:06:57.531Z,36.49
2023-03-23T06:10:57.451Z,36.51
2023-03-23T06:12:57.470Z,37.51
2023-03-23T06:15:57.433Z,37.61
2023-03-23T06:16:57.431Z,38.87
2023-03-23T06:17:57.540Z,35.78
2023-03-23T06:22:57.378Z,38.13
2023-03-23T06:23:57.388Z,39.99
2023-03-23T06:25:57.405Z,37.89
2023-03-23T06:26:58.382Z,38.40
2023-03-23T06:29:57.835Z,42.05
2023-03-23T06:31:57.328Z,43.93
2023-03-23T06:36:57.324Z,113.72
2023-03-23T06:40:57.358Z,106.81
2023-03-23T06:41:57.387Z,99.53
2023-03-23T06:47:57.422Z,79.05
2023-03-23T06:48:57.440Z,55.65
2023-03-23T06:49:57.856Z,35.54
2023-03-23T06:50:57.390Z,31.30
2023-03-23T06:51:57.400Z,25.00
2023-03-23T06:52:57.386Z,25.00
2023-03-23T06:53:57.418Z,28.39
2023-03-23T06:56:57.434Z,26.03
2023-03-23T06:58:57.360Z,29.12
2023-03-23T07:00:57.335Z,25.91
2023-03-23T07:01:57.333Z,25.84
2023-03-23T07:02:57.322Z,26.77
2023-03-23T07:03:57.358Z,25.44
2023-03-23T07:05:57.362Z,25.06
2023-03-23T07:06:57.303Z,28.05
2023-03-23T07:07:57.364Z,24.67
2023-03-23T07:12:57.238Z,51.11
2023-03-23T07:13:57.273Z,43.24
2023-03-23T07:14:57.296Z,39.38
2023-03-23T07:15:57.310Z,37.05
2023-03-23T07:16:57.362Z,31.52
2023-03-23T07:17:57.376Z,33.16
2023-03-23T07:19:57.440Z,29.48
2023-03-23T07:20:57.872Z,25.00
2023-03-23T07:21:57.443Z,27.00
2023-03-23T07:22:57.517Z,30.34
2023-03-23T07:28:58.043Z,35.01
2023-03-23T07:29:57.712Z,47.59
2023-03-23T07:30:57.712Z,40.40
2023-03-23T07:31:57.748Z,42.75
2023-03-23T07:32:57.777Z,40.10
2023-03-23T07:33:57.790Z,44.45
2023-03-23T07:34:57.898Z,40.27
2023-03-23T07:35:57.915Z,24.56
2023-03-23T07:36:57.928Z,29.18
2023-03-23T07:37:57.920Z,77.05
2023-03-23T07:38:58.034Z,113.68
2023-03-23T07:39:58.105Z,131.15
2023-03-23T07:40:58.126Z,130.07
2023-03-23T07:41:58.202Z,103.45
2023-03-23T07:42:58.521Z,89.18
2023-03-23T07:43:58.313Z,76.86
2023-03-23T07:44:58.364Z,63.56
2023-03-23T07:45:58.431Z,56.15
2023-03-23T07:46:58.474Z,51.14
2023-03-23T07:47:58.552Z,51.95
2023-03-23T07:48:58.592Z,45.17
2023-03-23T07:49:58.665Z,36.04
2023-03-23T07:50:58.703Z,25.00
2023-03-23T07:51:58.787Z,25.30
2023-03-23T07:52:58.809Z,25.62
2023-03-23T07:53:58.844Z,29.06
2023-03-23T07:56:58.858Z,34.78
2023-03-23T07:57:58.860Z,32.18
2023-03-23T07:58:58.859Z,30.84
2023-03-23T07:59:58.896Z,35.93
2023-03-23T08:00:58.919Z,32.31
2023-03-23T08:01:58.984Z,28.84
2023-03-23T08:02:58.994Z,34.30
2023-03-23T08:03:59.023Z,35.30
2023-03-23T08:04:59.103Z,44.23
2023-03-23T08:05:59.395Z,38.66
2023-03-23T08:07:59.150Z,38.72
2023-03-23T08:08:59.210Z,50.01
2023-03-23T08:09:59.273Z,62.00
2023-03-23T08:10:59.365Z,74.59
2023-03-23T08:11:59.411Z,74.33
2023-03-23T08:12:59.466Z,68.75
2023-03-23T08:13:59.531Z,81.43
2023-03-23T08:14:59.545Z,84.46
2023-03-23T08:15:59.577Z,96.47
2023-03-23T08:16:59.633Z,96.01
2023-03-23T08:17:59.672Z,89.61
2023-03-23T08:18:59.693Z,90.83
2023-03-23T08:20:00.719Z,91.05
2023-03-23T08:25:59.656Z,63.83
2023-03-23T08:27:59.609Z,48.19
2023-03-23T08:28:59.655Z,56.71
2023-03-23T08:29:59.725Z,58.95
2023-03-23T08:30:59.896Z,72.48
2023-03-23T08:31:59.670Z,83.25
2023-03-23T08:32:59.722Z,75.10
2023-03-23T08:39:59.908Z,80.53
2023-03-23T08:40:59.941Z,77.52
2023-03-23T08:41:59.936Z,107.23
2023-03-23T08:43:01.265Z,112.84
2023-03-23T08:44:00.031Z,98.92
2023-03-23T08:44:59.987Z,91.82
2023-03-23T08:46:00.130Z,90.07
2023-03-23T08:47:00.581Z,82.18
2023-03-23T08:49:00.144Z,61.01
2023-03-23T08:50:00.165Z,68.70
2023-03-23T08:51:00.487Z,72.49
2023-03-23T08:54:00.260Z,93.86
2023-03-23T08:56:00.293Z,118.60
2023-03-23T08:57:00.563Z,109.09
2023-03-23T08:58:00.341Z,91.80
2023-03-23T09:03:00.548Z,117.99
2023-03-23T09:04:00.611Z,117.06
2023-03-23T09:05:00.656Z,108.22
2023-03-23T09:06:00.725Z,122.45
2023-03-23T09:07:00.783Z,124.22
2023-03-23T09:08:00.836Z,130.75
2023-03-23T09:09:00.954Z,114.04
2023-03-23T09:10:00.965Z,120.08
2023-03-23T09:11:01.070Z,120.18
2023-03-23T09:12:01.090Z,117.79
2023-03-23T09:13:01.138Z,120.86
2023-03-23T09:14:01.220Z,118.64
2023-03-23T09:15:01.259Z,118.84
2023-03-23T09:16:01.601Z,116.85
2023-03-23T09:17:01.384Z,120.36
2023-03-23T09:18:02.453Z,117.30
2023-03-23T09:19:01.532Z,110.87
2023-03-23T09:20:01.623Z,129.91
2023-03-23T09:21:01.711Z,127.29
2023-03-23T09:22:01.693Z,125.78
2023-03-23T09:23:01.733Z,123.00
2023-03-23T09:24:01.807Z,123.63
2023-03-23T09:25:01.884Z,129.94
2023-03-23T09:26:02.067Z,133.04
2023-03-23T09:27:02.488Z,132.06
2023-03-23T09:28:02.006Z,133.63
2023-03-23T09:29:02.012Z,136.97
2023-03-23T09:30:02.095Z,145.40
2023-03-23T09:31:03.052Z,145.88
2023-03-23T09:32:02.444Z,147.74
2023-03-23T09:34:02.045Z,160.51
2023-03-23T09:38:01.990Z,173.23
2023-03-23T09:42:01.933Z,172.25
2023-03-23T09:43:01.969Z,174.24
2023-03-23T09:44:01.965Z,174.99
2023-03-23T09:48:01.904Z,171.83
2023-03-23T09:49:01.951Z,172.13
2023-03-23T09:50:01.963Z,169.89
2023-03-23T09:51:01.993Z,169.19
2023-03-23T09:52:02.420Z,170.22
2023-03-23T09:53:02.116Z,171.16
2023-03-23T09:56:02.095Z,183.34
2023-03-23T09:57:02.090Z,157.86
2023-03-23T09:58:02.124Z,138.62
2023-03-23T10:01:02.251Z,110.98
2023-03-23T10:02:02.415Z,137.91
2023-03-23T10:03:02.320Z,159.56
2023-03-23T10:04:02.399Z,165.67
2023-03-23T10:05:02.427Z,175.47
2023-03-23T10:06:02.520Z,185.98
2023-03-23T10:07:02.581Z,184.43
2023-03-23T10:08:02.597Z,186.45
2023-03-23T10:09:02.650Z,187.17
2023-03-23T10:10:02.676Z,191.49
2023-03-23T10:11:02.712Z,194.76
2023-03-23T10:12:02.763Z,149.40
2023-03-23T10:13:02.788Z,103.88
2023-03-23T10:14:02.837Z,80.16
2023-03-23T10:15:02.894Z,43.62
2023-03-23T10:16:02.985Z,25.00
2023-03-23T10:17:03.007Z,37.98
2023-03-23T10:18:03.070Z,72.06
2023-03-23T10:19:03.119Z,93.82
2023-03-23T10:20:03.189Z,119.99
2023-03-23T10:21:03.235Z,126.42
2023-03-23T10:22:03.428Z,145.53
2023-03-23T10:23:03.319Z,137.36
2023-03-23T10:24:03.378Z,142.87
2023-03-23T10:25:03.396Z,150.77
2023-03-23T10:26:03.482Z,157.44
2023-03-23T10:27:03.496Z,153.64
2023-03-23T10:28:03.507Z,153.84
2023-03-23T10:29:03.520Z,157.11
2023-03-23T10:30:03.561Z,127.11
2023-03-23T10:37:03.976Z,164.75
2023-03-23T10:38:03.694Z,163.53
2023-03-23T10:43:03.786Z,142.45
2023-03-23T10:44:03.809Z,162.68
2023-03-23T10:45:03.814Z,166.16
2023-03-23T10:46:04.045Z,165.91
2023-03-23T10:47:03.988Z,153.73
2023-03-23T10:48:03.873Z,149.57
2023-03-23T10:50:03.901Z,161.37
2023-03-23T10:51:03.880Z,167.84
2023-03-23T10:52:03.982Z,155.89
2023-03-23T10:53:05.114Z,151.10
2023-03-23T10:54:03.989Z,160.29
2023-03-23T10:59:03.975Z,189.12
2023-03-23T11:00:04.343Z,199.31
2023-03-23T11:01:04.027Z,210.89
2023-03-23T11:02:04.037Z,218.83
2023-03-23T11:03:05.735Z,233.48
2023-03-23T11:04:04.061Z,238.67
2023-03-23T11:05:09.428Z,249.02
2023-03-23T11:06:05.110Z,249.80
2023-03-23T11:09:04.028Z,275.55
2023-03-23T11:10:04.097Z,297.44
2023-03-23T11:11:05.077Z,248.92
2023-03-23T11:12:04.058Z,250.00
2023-03-23T11:13:04.066Z,250.00
2023-03-23T11:15:04.024Z,247.52
2023-03-23T11:16:04.029Z,250.00
2023-03-23T11:17:13.894Z,246.40
2023-03-23T11:18:05.003Z,246.72
2023-03-23T11:23:04.231Z,248.95
2023-03-23T11:24:09.992Z,250.00
2023-03-23T11:25:05.231Z,250.29
2023-03-23T11:26:04.253Z,251.49
2023-03-23T11:29:04.200Z,258.99
2023-03-23T11:30:04.244Z,248.51
2023-03-23T11:32:04.202Z,249.92
2023-03-23T11:33:04.509Z,246.73
2023-03-23T11:36:04.182Z,242.66
2023-03-23T11:37:04.226Z,242.53
2023-03-23T11:38:04.526Z,238.60
2023-03-23T11:39:04.288Z,240.22
2023-03-23T11:40:04.328Z,151.90
2023-03-23T11:41:04.410Z,134.27
2023-03-23T11:42:09.443Z,80.71
2023-03-23T11:43:05.442Z,80.71
2023-03-23T11:50:04.435Z,21.81
2023-03-23T11:51:05.502Z,22.02
2023-03-23T11:52:04.387Z,22.80
2023-03-23T11:53:04.579Z,26.36
2023-03-23T11:54:05.379Z,46.66
2023-03-23T12:07:04.745Z,27.42
2023-03-23T12:08:05.028Z,28.40
2023-03-23T12:09:04.852Z,25.36
2023-03-23T12:10:04.917Z,34.30
2023-03-23T12:11:05.120Z,31.08
2023-03-23T12:12:05.093Z,43.69
2023-03-23T12:14:05.157Z,52.15
2023-03-23T12:15:05.210Z,68.54
2023-03-23T12:16:05.316Z,94.34
2023-03-23T12:17:05.285Z,108.15
2023-03-23T12:18:05.329Z,115.49
2023-03-23T12:19:05.390Z,107.24
2023-03-23T12:20:06.017Z,114.58
2023-03-23T12:22:05.510Z,121.83
2023-03-23T12:23:05.993Z,116.77
2023-03-23T12:24:06.444Z,125.79
2023-03-23T12:25:05.641Z,135.51
2023-03-23T12:26:05.651Z,136.23
2023-03-23T12:27:05.671Z,142.83
2023-03-23T12:28:06.004Z,149.85
2023-03-23T12:29:05.713Z,154.86
2023-03-23T12:34:05.772Z,162.37
2023-03-23T12:35:05.749Z,163.41
2023-03-23T12:36:05.773Z,165.56
2023-03-23T12:37:05.779Z,167.14
2023-03-23T12:38:05.831Z,169.71
2023-03-23T12:39:05.838Z,168.95
2023-03-23T12:40:05.910Z,170.40
2023-03-23T12:41:05.919Z,172.30
2023-03-23T12:42:05.903Z,173.92
2023-03-23T12:43:06.026Z,172.73
2023-03-23T12:49:06.195Z,181.80
2023-03-23T12:50:06.271Z,182.50
2023-03-23T12:51:06.274Z,182.91
2023-03-23T12:52:06.344Z,183.14
2023-03-23T12:53:06.470Z,183.73
2023-03-23T12:54:06.429Z,185.84
2023-03-23T13:00:06.667Z,188.18
2023-03-23T13:02:06.688Z,190.00
2023-03-23T13:03:06.684Z,190.26
2023-03-23T13:04:06.772Z,190.97
2023-03-23T13:05:06.781Z,193.43
2023-03-23T13:06:06.809Z,193.08
2023-03-23T13:07:06.896Z,191.72
2023-03-23T13:08:06.940Z,193.85
2023-03-23T13:09:06.997Z,193.29
2023-03-23T13:10:07.039Z,194.07
2023-03-23T13:13:07.163Z,195.33
2023-03-23T13:14:07.097Z,194.78
2023-03-23T13:15:07.176Z,195.49
2023-03-23T13:16:08.788Z,195.49
2023-03-23T13:17:07.242Z,195.66
2023-03-23T13:18:07.283Z,194.96
2023-03-23T13:19:07.329Z,195.54
2023-03-23T13:20:07.334Z,196.89
2023-03-23T13:21:07.386Z,196.51
2023-03-23T13:22:07.424Z,197.06
2023-03-23T13:23:07.484Z,197.13
2023-03-23T13:25:07.507Z,197.25
2023-03-23T13:26:07.521Z,198.03
2023-03-23T13:28:07.588Z,197.67
2023-03-23T13:29:07.618Z,197.89
2023-03-23T13:30:07.643Z,199.19
2023-03-23T13:31:07.675Z,197.96
2023-03-23T13:32:07.693Z,198.33
2023-03-23T13:33:07.713Z,197.85
2023-03-23T13:34:07.733Z,197.79
2023-03-23T13:35:07.766Z,199.64
2023-03-23T13:36:13.404Z,198.37
2023-03-23T13:37:08.825Z,198.55
2023-03-23T13:39:07.790Z,199.51
2023-03-23T13:43:07.764Z,199.95
2023-03-23T13:46:07.737Z,200.12
2023-03-23T13:48:07.737Z,202.52
2023-03-23T13:54:07.714Z,201.73
2023-03-23T13:55:07.704Z,201.87
2023-03-23T13:56:12.216Z,203.05
2023-03-23T13:57:08.750Z,203.11
2023-03-23T13:59:07.738Z,204.44
2023-03-23T14:04:07.699Z,214.38
2023-03-23T14:06:07.694Z,220.03
2023-03-23T14:08:07.675Z,223.57
2023-03-23T14:13:07.675Z,246.93
2023-03-23T14:14:07.707Z,250.26
2023-03-23T14:15:07.712Z,250.19
2023-03-23T14:16:07.785Z,250.00
2023-03-23T14:17:07.795Z,250.01
2023-03-23T14:18:07.840Z,249.51
2023-03-23T14:19:07.864Z,250.00
2023-03-23T14:20:07.916Z,249.96
2023-03-23T14:21:07.937Z,250.00
2023-03-23T14:22:07.940Z,249.42
2023-03-23T14:29:07.875Z,250.00
2023-03-23T14:30:07.958Z,249.47
2023-03-23T14:39:07.829Z,249.41
2023-03-23T14:47:07.789Z,249.40
2023-03-23T14:48:07.798Z,249.04
2023-03-23T14:52:07.755Z,249.30
2023-03-23T15:01:07.640Z,243.75
2023-03-23T15:02:07.660Z,244.41
2023-03-23T15:04:07.744Z,244.84
2023-03-23T15:05:07.744Z,244.73
2023-03-23T15:06:07.820Z,244.19
2023-03-23T15:07:07.821Z,244.29
2023-03-23T15:08:07.883Z,242.63
2023-03-23T15:09:08.170Z,243.06
2023-03-23T15:10:07.946Z,242.88
2023-03-23T15:11:07.991Z,242.17
2023-03-23T15:12:08.063Z,240.23
2023-03-23T15:13:08.068Z,239.77
2023-03-23T15:14:08.173Z,240.68
2023-03-23T15:21:08.291Z,237.23
2023-03-23T15:22:08.574Z,237.37
2023-03-23T15:25:08.453Z,236.21
2023-03-23T15:26:08.486Z,235.43
2023-03-23T15:27:08.502Z,235.29
2023-03-23T15:28:08.558Z,234.40
2023-03-23T15:29:08.611Z,235.69
2023-03-23T15:30:08.737Z,235.78
2023-03-23T15:31:08.702Z,234.76
2023-03-23T15:32:08.708Z,234.12
2023-03-23T15:36:08.782Z,233.97
2023-03-23T15:37:14.893Z,233.68
2023-03-23T15:38:09.788Z,233.78
2023-03-23T15:40:08.789Z,232.98
2023-03-23T15:45:08.744Z,230.40
2023-03-23T15:46:08.765Z,229.44
2023-03-23T15:49:08.695Z,228.19
2023-03-23T15:50:08.716Z,228.51
2023-03-23T15:51:08.670Z,225.79
2023-03-23T15:52:08.680Z,227.22
2023-03-23T15:53:08.686Z,225.88
2023-03-23T15:56:08.680Z,225.65
2023-03-23T15:58:08.726Z,225.24
2023-03-23T16:00:08.645Z,224.86
2023-03-23T16:02:08.692Z,222.82
2023-03-23T16:08:08.571Z,221.52
2023-03-23T16:09:08.571Z,220.56
2023-03-23T16:11:08.559Z,220.20
2023-03-23T16:12:08.586Z,220.83
2023-03-23T16:13:08.542Z,220.76
2023-03-23T16:14:08.572Z,220.89
2023-03-23T16:15:08.611Z,220.00
2023-03-23T16:16:08.668Z,219.57
2023-03-23T16:17:08.753Z,220.79
2023-03-23T16:18:08.840Z,219.50
2023-03-23T16:19:08.776Z,219.27
2023-03-23T16:20:08.841Z,219.42
2023-03-23T16:21:08.887Z,219.34
2023-03-23T16:22:08.920Z,219.89
2023-03-23T16:23:08.873Z,219.47
2023-03-23T16:24:08.884Z,218.69
2023-03-23T16:31:08.926Z,216.87
2023-03-23T16:32:08.862Z,215.68
2023-03-23T16:33:08.954Z,215.13
2023-03-23T16:34:08.887Z,215.25
2023-03-23T16:35:08.890Z,216.41
2023-03-23T16:36:08.919Z,215.86
2023-03-23T16:37:08.895Z,214.35
2023-03-23T16:38:09.307Z,213.51
2023-03-23T16:39:08.871Z,213.32
2023-03-23T16:44:08.876Z,212.44
2023-03-23T16:45:08.871Z,210.81
2023-03-23T16:46:08.939Z,209.63
2023-03-23T16:53:09.190Z,208.95
2023-03-23T16:54:09.225Z,207.82
2023-03-23T16:55:09.270Z,207.93
2023-03-23T16:56:09.317Z,208.22
2023-03-23T16:57:09.359Z,208.18
2023-03-23T16:58:17.075Z,208.35
2023-03-23T16:59:10.289Z,208.41
2023-03-23T17:02:09.269Z,208.17
2023-03-23T17:06:09.216Z,208.29
2023-03-23T17:11:09.191Z,209.07
2023-03-23T17:12:09.159Z,207.74
2023-03-23T17:13:09.211Z,208.26
2023-03-23T17:21:09.197Z,206.42
2023-03-23T17:22:09.202Z,205.90
2023-03-23T17:23:09.229Z,207.29
2023-03-23T17:30:09.255Z,204.73
2023-03-23T17:31:09.304Z,204.93
2023-03-23T17:32:09.487Z,205.21
2023-03-23T17:33:09.278Z,204.61
2023-03-23T17:34:09.263Z,203.88
2023-03-23T17:35:09.297Z,206.04
2023-03-23T17:36:09.322Z,205.00
2023-03-23T17:37:09.322Z,204.91
2023-03-23T17:50:11.830Z,202.47
2023-03-23T17:51:09.597Z,201.86
2023-03-23T17:52:09.616Z,202.14
2023-03-23T17:57:09.575Z,201.60
2023-03-23T17:58:09.554Z,201.09
2023-03-23T17:59:09.562Z,202.87
2023-03-23T18:11:09.508Z,200.00
2023-03-23T18:13:09.422Z,200.90
2023-03-23T18:14:09.426Z,199.46
2023-03-23T18:16:09.431Z,198.47
2023-03-23T18:17:09.439Z,198.33
2023-03-23T18:27:09.330Z,196.09
2023-03-23T18:28:09.333Z,196.16
2023-03-23T18:29:09.361Z,195.28
2023-03-23T18:31:09.294Z,195.51
2023-03-23T18:32:09.372Z,195.27
2023-03-23T18:33:09.443Z,195.42
2023-03-23T18:37:09.282Z,194.50
2023-03-23T18:38:09.281Z,194.52
2023-03-23T18:43:09.346Z,191.43
2023-03-23T18:44:09.358Z,192.11
2023-03-23T18:45:09.429Z,190.59
2023-03-23T18:46:09.396Z,191.96
2023-03-23T18:53:09.487Z,191.45
2023-03-23T18:54:09.495Z,190.62
2023-03-23T18:55:10.164Z,191.54
2023-03-23T19:06:09.620Z,191.36
2023-03-23T19:07:09.644Z,190.50
2023-03-23T19:08:09.635Z,190.78
2023-03-23T19:09:09.684Z,191.32
2023-03-23T19:10:09.687Z,190.88
2023-03-23T19:11:09.725Z,189.72
2023-03-23T19:12:09.728Z,190.57
2023-03-23T19:18:09.800Z,188.31
2023-03-23T19:19:09.810Z,189.57
2023-03-23T19:20:13.851Z,189.32
2023-03-23T19:21:14.534Z,189.40
2023-03-23T19:23:09.833Z,190.00
2023-03-23T19:27:09.788Z,190.40
2023-03-23T19:28:55.642Z,189.32
2023-03-23T19:29:26.306Z,189.49
2023-03-23T19:30:10.773Z,189.57
2023-03-23T19:32:09.730Z,190.35
2023-03-23T19:33:09.858Z,190.69
2023-03-23T19:34:09.730Z,190.02
2023-03-23T19:38:09.721Z,190.01
2023-03-23T19:39:09.744Z,190.46
2023-03-23T19:40:24.752Z,187.92
2023-03-23T19:41:10.695Z,188.06
2023-03-23T19:42:09.780Z,188.12
2023-03-23T19:43:09.927Z,187.73
2023-03-23T19:44:09.681Z,186.96
2023-03-23T19:49:09.654Z,186.04
2023-03-23T19:50:09.891Z,185.47
2023-03-23T19:51:09.833Z,186.81
2023-03-23T19:52:12.602Z,185.90
2023-03-23T19:55:09.610Z,186.25
2023-03-23T20:00:09.567Z,186.27
2023-03-23T20:01:09.581Z,185.25
2023-03-23T20:03:09.586Z,187.02
2023-03-23T20:08:09.506Z,185.91
2023-03-23T20:09:09.531Z,184.61
2023-03-23T20:10:09.525Z,185.64
2023-03-23T20:11:09.523Z,184.57
2023-03-23T20:12:09.841Z,185.37
2023-03-23T20:13:10.307Z,185.12
2023-03-23T20:14:09.619Z,184.54
2023-03-23T20:15:09.698Z,184.52
2023-03-23T20:16:09.764Z,185.22
2023-03-23T20:17:10.037Z,184.62
2023-03-23T20:18:09.902Z,183.75
2023-03-23T20:19:10.152Z,185.32
2023-03-23T20:20:10.578Z,185.28
2023-03-23T20:21:10.037Z,186.31
2023-03-23T20:22:10.129Z,184.58
2023-03-23T20:26:11.674Z,184.19
2023-03-23T20:27:10.452Z,184.93
2023-03-23T20:28:10.438Z,184.21
2023-03-23T20:29:10.628Z,182.89
2023-03-23T20:30:10.609Z,183.42
2023-03-23T20:31:17.039Z,182.78
2023-03-23T20:32:11.635Z,182.96
2023-03-23T20:37:10.586Z,183.12
2023-03-23T20:38:10.624Z,182.52
2023-03-23T20:39:10.705Z,181.73
2023-03-23T20:40:10.581Z,182.73
2023-03-23T20:41:10.654Z,182.79
2023-03-23T20:42:10.675Z,183.26
2023-03-23T20:43:10.862Z,182.75
2023-03-23T20:44:10.792Z,182.47
2023-03-23T20:45:10.851Z,181.99
2023-03-23T20:46:10.924Z,182.54
2023-03-23T20:47:10.997Z,181.78
2023-03-23T20:48:11.038Z,181.97
2023-03-23T20:49:11.103Z,183.16
2023-03-23T20:50:11.170Z,183.30
2023-03-23T20:51:11.256Z,181.99
2023-03-23T20:52:11.277Z,181.19
2023-03-23T20:53:11.348Z,179.55
2023-03-23T20:54:11.419Z,181.11
2023-03-23T20:55:11.492Z,178.14
2023-03-23T20:56:11.529Z,179.37
2023-03-23T20:57:11.604Z,180.29
2023-03-23T20:58:11.591Z,179.88
2023-03-23T20:59:11.599Z,179.72
2023-03-23T21:00:11.659Z,180.64
2023-03-23T21:07:11.806Z,179.76
2023-03-23T21:08:11.886Z,179.53
2023-03-23T21:12:11.889Z,178.63
2023-03-23T21:13:11.912Z,179.68
2023-03-23T21:14:11.904Z,178.20
2023-03-23T21:15:11.934Z,178.42
2023-03-23T21:16:11.954Z,178.53
2023-03-23T21:17:11.948Z,177.42
2023-03-23T21:18:12.001Z,177.73
2023-03-23T21:19:12.034Z,177.68